sensor_id;sensor_type;location;lat;lon;timestamp;temperature;humidity
29849;DHT22;16728;50.832;5.590;2023-08-20T00:01:36;20.90;99.90
29849;DHT22;16728;50.832;5.590;2023-08-20T00:04:39;20.90;99.90
29849;DHT22;16728;50.832;5.590;2023-08-20T00:07:41;20.90;99.90
29849;DHT22;16728;50.832;5.590;2023-08-20T00:10:43;21.00;99.90
29849;DHT22;16728;50.832;5.590;2023-08-20T00:13:45;21.10;99.90
29849;DHT22;16728;50.832;5.590;2023-08-20T00:16:47;21.10;99.90
29849;DHT22;16728;50.832;5.590;2023-08-20T00:19:50;21.10;99.90
29849;DHT22;16728;50.832;5.590;2023-08-20T00:22:52;21.00;99.90
29849;DHT22;16728;50.832;5.590;2023-08-20T00:25:54;21.00;99.90
29849;DHT22;16728;50.832;5.590;2023-08-20T00:28:56;21.00;99.90
29849;DHT22;16728;50.832;5.590;2023-08-20T00:31:58;21.00;99.90
29849;DHT22;16728;50.832;5.590;2023-08-20T00:35:00;20.90;99.90
29849;DHT22;16728;50.832;5.590;2023-08-20T00:38:02;20.90;99.90
29849;DHT22;16728;50.832;5.590;2023-08-20T00:41:05;21.00;99.90
29849;DHT22;16728;50.832;5.590;2023-08-20T00:44:06;20.90;99.90
29849;DHT22;16728;50.832;5.590;2023-08-20T00:47:09;20.90;99.90
29849;DHT22;16728;50.832;5.590;2023-08-20T00:50:11;20.90;99.90
29849;DHT22;16728;50.832;5.590;2023-08-20T00:53:14;20.80;99.90
29849;DHT22;16728;50.832;5.590;2023-08-20T00:56:16;20.80;99.90
29849;DHT22;16728;50.832;5.590;2023-08-20T00:59:18;20.70;99.90
29849;DHT22;16728;50.832;5.590;2023-08-20T01:02:20;20.40;99.90
29849;DHT22;16728;50.832;5.590;2023-08-20T01:05:22;20.30;99.90
29849;DHT22;16728;50.832;5.590;2023-08-20T01:08:37;20.30;99.90
29849;DHT22;16728;50.832;5.590;2023-08-20T01:11:49;20.20;99.90
29849;DHT22;16728;50.832;5.590;2023-08-20T01:14:54;20.20;99.90
29849;DHT22;16728;50.832;5.590;2023-08-20T01:17:56;20.20;99.90
29849;DHT22;16728;50.832;5.590;2023-08-20T01:21:05;20.10;99.90
29849;DHT22;16728;50.832;5.590;2023-08-20T01:24:25;20.10;99.90
29849;DHT22;16728;50.832;5.590;2023-08-20T01:27:57;20.10;99.90
29849;DHT22;16728;50.832;5.590;2023-08-20T01:31:03;20.00;99.90
29849;DHT22;16728;50.832;5.590;2023-08-20T01:34:05;20.00;99.90
29849;DHT22;16728;50.832;5.590;2023-08-20T01:37:07;20.10;99.90
29849;DHT22;16728;50.832;5.590;2023-08-20T01:40:09;20.10;99.90
29849;DHT22;16728;50.832;5.590;2023-08-20T01:43:12;20.10;99.90
29849;DHT22;16728;50.832;5.590;2023-08-20T01:46:13;20.10;99.90
29849;DHT22;16728;50.832;5.590;2023-08-20T01:49:15;20.00;99.90
29849;DHT22;16728;50.832;5.590;2023-08-20T01:52:17;20.00;99.90
29849;DHT22;16728;50.832;5.590;2023-08-20T01:55:19;20.00;99.90
29849;DHT22;16728;50.832;5.590;2023-08-20T01:58:21;19.90;99.90
29849;DHT22;16728;50.832;5.590;2023-08-20T02:01:23;19.80;99.90
29849;DHT22;16728;50.832;5.590;2023-08-20T02:04:25;19.80;99.90
29849;DHT22;16728;50.832;5.590;2023-08-20T02:07:27;19.70;99.90
29849;DHT22;16728;50.832;5.590;2023-08-20T02:10:29;19.70;99.90
29849;DHT22;16728;50.832;5.590;2023-08-20T02:13:31;19.70;99.90
29849;DHT22;16728;50.832;5.590;2023-08-20T02:16:33;19.70;99.90
29849;DHT22;16728;50.832;5.590;2023-08-20T02:19:35;19.80;99.90
29849;DHT22;16728;50.832;5.590;2023-08-20T02:22:37;19.70;99.90
29849;DHT22;16728;50.832;5.590;2023-08-20T02:25:39;19.60;99.90
29849;DHT22;16728;50.832;5.590;2023-08-20T02:28:41;19.60;99.90
29849;DHT22;16728;50.832;5.590;2023-08-20T02:31:43;19.70;99.90
29849;DHT22;16728;50.832;5.590;2023-08-20T02:34:52;19.70;99.90
29849;DHT22;16728;50.832;5.590;2023-08-20T02:37:55;19.80;99.90
29849;DHT22;16728;50.832;5.590;2023-08-20T02:40:57;19.90;99.90
29849;DHT22;16728;50.832;5.590;2023-08-20T02:43:59;19.80;99.90
29849;DHT22;16728;50.832;5.590;2023-08-20T02:47:01;19.90;99.90
29849;DHT22;16728;50.832;5.590;2023-08-20T02:50:03;19.90;99.90
29849;DHT22;16728;50.832;5.590;2023-08-20T02:53:06;20.00;99.90
29849;DHT22;16728;50.832;5.590;2023-08-20T02:56:08;19.90;99.90
29849;DHT22;16728;50.832;5.590;2023-08-20T02:59:10;19.80;99.90
29849;DHT22;16728;50.832;5.590;2023-08-20T03:02:11;19.90;99.90
29849;DHT22;16728;50.832;5.590;2023-08-20T03:05:13;19.80;99.90
29849;DHT22;16728;50.832;5.590;2023-08-20T03:08:16;19.50;99.90
29849;DHT22;16728;50.832;5.590;2023-08-20T03:11:18;19.60;99.90
29849;DHT22;16728;50.832;5.590;2023-08-20T03:14:19;19.70;99.90
29849;DHT22;16728;50.832;5.590;2023-08-20T03:17:21;19.70;99.90
29849;DHT22;16728;50.832;5.590;2023-08-20T03:20:23;19.60;99.90
29849;DHT22;16728;50.832;5.590;2023-08-20T03:23:25;19.70;99.90
29849;DHT22;16728;50.832;5.590;2023-08-20T03:26:27;19.60;99.90
29849;DHT22;16728;50.832;5.590;2023-08-20T03:29:29;19.60;99.90
29849;DHT22;16728;50.832;5.590;2023-08-20T03:32:31;19.70;99.90
29849;DHT22;16728;50.832;5.590;2023-08-20T03:35:34;19.70;99.90
29849;DHT22;16728;50.832;5.590;2023-08-20T03:38:36;19.70;99.90
29849;DHT22;16728;50.832;5.590;2023-08-20T03:41:38;19.70;99.90
29849;DHT22;16728;50.832;5.590;2023-08-20T03:44:39;19.60;99.90
29849;DHT22;16728;50.832;5.590;2023-08-20T03:47:41;19.70;99.90
29849;DHT22;16728;50.832;5.590;2023-08-20T03:50:46;19.70;99.90
29849;DHT22;16728;50.832;5.590;2023-08-20T03:53:48;19.70;99.90
29849;DHT22;16728;50.832;5.590;2023-08-20T03:56:50;19.80;99.90
29849;DHT22;16728;50.832;5.590;2023-08-20T03:59:52;19.80;99.90
29849;DHT22;16728;50.832;5.590;2023-08-20T04:02:54;19.70;99.90
29849;DHT22;16728;50.832;5.590;2023-08-20T04:05:56;19.70;99.90
29849;DHT22;16728;50.832;5.590;2023-08-20T04:08:58;19.70;99.90
29849;DHT22;16728;50.832;5.590;2023-08-20T04:11:59;19.60;99.90
29849;DHT22;16728;50.832;5.590;2023-08-20T04:15:01;19.70;99.90
29849;DHT22;16728;50.832;5.590;2023-08-20T04:18:03;19.60;99.90
29849;DHT22;16728;50.832;5.590;2023-08-20T04:21:06;19.60;99.90
29849;DHT22;16728;50.832;5.590;2023-08-20T04:24:09;19.60;99.90
29849;DHT22;16728;50.832;5.590;2023-08-20T04:27:11;19.60;99.90
29849;DHT22;16728;50.832;5.590;2023-08-20T04:30:13;19.60;99.90
29849;DHT22;16728;50.832;5.590;2023-08-20T04:33:15;19.60;99.90
29849;DHT22;16728;50.832;5.590;2023-08-20T04:36:17;19.60;99.90
29849;DHT22;16728;50.832;5.590;2023-08-20T04:39:19;19.60;99.90
29849;DHT22;16728;50.832;5.590;2023-08-20T04:42:21;19.60;99.90
29849;DHT22;16728;50.832;5.590;2023-08-20T04:45:23;19.50;99.90
29849;DHT22;16728;50.832;5.590;2023-08-20T04:48:24;19.60;99.90
29849;DHT22;16728;50.832;5.590;2023-08-20T04:51:26;19.40;99.90
29849;DHT22;16728;50.832;5.590;2023-08-20T04:54:28;19.40;99.90
29849;DHT22;16728;50.832;5.590;2023-08-20T04:57:30;19.40;99.90
29849;DHT22;16728;50.832;5.590;2023-08-20T05:00:32;19.30;99.90
29849;DHT22;16728;50.832;5.590;2023-08-20T05:03:34;19.40;99.90
29849;DHT22;16728;50.832;5.590;2023-08-20T05:06:36;19.40;99.90
29849;DHT22;16728;50.832;5.590;2023-08-20T05:09:38;19.40;99.90
29849;DHT22;16728;50.832;5.590;2023-08-20T05:12:40;19.40;99.90
29849;DHT22;16728;50.832;5.590;2023-08-20T05:15:42;19.50;99.90
29849;DHT22;16728;50.832;5.590;2023-08-20T05:18:44;19.50;99.90
29849;DHT22;16728;50.832;5.590;2023-08-20T05:21:46;19.50;99.90
29849;DHT22;16728;50.832;5.590;2023-08-20T05:24:48;19.60;99.90
29849;DHT22;16728;50.832;5.590;2023-08-20T05:27:50;19.60;99.90
29849;DHT22;16728;50.832;5.590;2023-08-20T05:30:57;19.70;99.90
29849;DHT22;16728;50.832;5.590;2023-08-20T05:33:59;19.80;99.90
29849;DHT22;16728;50.832;5.590;2023-08-20T05:37:01;19.80;99.90
29849;DHT22;16728;50.832;5.590;2023-08-20T05:40:04;19.80;99.90
29849;DHT22;16728;50.832;5.590;2023-08-20T05:43:06;19.90;99.90
29849;DHT22;16728;50.832;5.590;2023-08-20T05:46:07;20.00;99.90
29849;DHT22;16728;50.832;5.590;2023-08-20T05:49:09;19.90;99.90
29849;DHT22;16728;50.832;5.590;2023-08-20T05:52:11;20.00;99.90
29849;DHT22;16728;50.832;5.590;2023-08-20T05:55:13;20.00;99.90
29849;DHT22;16728;50.832;5.590;2023-08-20T05:58:15;20.00;99.90
29849;DHT22;16728;50.832;5.590;2023-08-20T06:01:18;20.00;99.90
29849;DHT22;16728;50.832;5.590;2023-08-20T06:04:20;20.10;99.90
29849;DHT22;16728;50.832;5.590;2023-08-20T06:07:23;20.20;99.90
29849;DHT22;16728;50.832;5.590;2023-08-20T06:10:25;20.40;99.90
29849;DHT22;16728;50.832;5.590;2023-08-20T06:13:28;20.50;99.90
29849;DHT22;16728;50.832;5.590;2023-08-20T06:16:30;20.50;99.90
29849;DHT22;16728;50.832;5.590;2023-08-20T06:19:32;20.50;99.90
29849;DHT22;16728;50.832;5.590;2023-08-20T06:22:37;20.60;99.90
29849;DHT22;16728;50.832;5.590;2023-08-20T06:25:39;20.50;99.90
29849;DHT22;16728;50.832;5.590;2023-08-20T06:28:41;20.60;99.90
29849;DHT22;16728;50.832;5.590;2023-08-20T06:31:43;20.70;99.90
29849;DHT22;16728;50.832;5.590;2023-08-20T06:34:46;20.70;99.90
29849;DHT22;16728;50.832;5.590;2023-08-20T06:37:47;20.80;99.90
29849;DHT22;16728;50.832;5.590;2023-08-20T06:40:50;20.90;99.90
29849;DHT22;16728;50.832;5.590;2023-08-20T06:43:52;20.90;99.90
29849;DHT22;16728;50.832;5.590;2023-08-20T06:46:53;21.00;99.90
29849;DHT22;16728;50.832;5.590;2023-08-20T06:49:55;21.00;99.90
29849;DHT22;16728;50.832;5.590;2023-08-20T06:52:57;20.90;99.90
29849;DHT22;16728;50.832;5.590;2023-08-20T06:55:59;21.10;99.90
29849;DHT22;16728;50.832;5.590;2023-08-20T06:59:01;21.20;99.90
29849;DHT22;16728;50.832;5.590;2023-08-20T07:02:05;21.20;99.90
29849;DHT22;16728;50.832;5.590;2023-08-20T07:05:07;21.20;99.90
29849;DHT22;16728;50.832;5.590;2023-08-20T07:08:11;21.30;99.90
29849;DHT22;16728;50.832;5.590;2023-08-20T07:11:13;21.40;99.90
29849;DHT22;16728;50.832;5.590;2023-08-20T07:14:15;21.40;99.90
29849;DHT22;16728;50.832;5.590;2023-08-20T07:17:17;21.50;99.90
29849;DHT22;16728;50.832;5.590;2023-08-20T07:20:19;21.40;99.90
29849;DHT22;16728;50.832;5.590;2023-08-20T07:23:21;21.50;99.90
29849;DHT22;16728;50.832;5.590;2023-08-20T07:26:23;21.70;99.90
29849;DHT22;16728;50.832;5.590;2023-08-20T07:29:26;21.70;99.90
29849;DHT22;16728;50.832;5.590;2023-08-20T07:32:28;21.60;99.90
29849;DHT22;16728;50.832;5.590;2023-08-20T07:35:30;21.60;99.90
29849;DHT22;16728;50.832;5.590;2023-08-20T07:38:32;21.70;99.90
29849;DHT22;16728;50.832;5.590;2023-08-20T07:41:34;21.70;99.90
29849;DHT22;16728;50.832;5.590;2023-08-20T07:44:36;21.80;99.90
29849;DHT22;16728;50.832;5.590;2023-08-20T07:47:38;21.80;99.90
29849;DHT22;16728;50.832;5.590;2023-08-20T07:50:40;22.00;99.90
29849;DHT22;16728;50.832;5.590;2023-08-20T07:53:44;22.00;99.90
29849;DHT22;16728;50.832;5.590;2023-08-20T07:56:47;22.00;99.90
29849;DHT22;16728;50.832;5.590;2023-08-20T07:59:52;22.10;99.90
29849;DHT22;16728;50.832;5.590;2023-08-20T08:02:54;22.30;99.90
29849;DHT22;16728;50.832;5.590;2023-08-20T08:05:56;22.40;99.90
29849;DHT22;16728;50.832;5.590;2023-08-20T08:09:17;22.50;99.90
29849;DHT22;16728;50.832;5.590;2023-08-20T08:12:19;22.60;99.90
29849;DHT22;16728;50.832;5.590;2023-08-20T08:15:22;22.90;99.90
29849;DHT22;16728;50.832;5.590;2023-08-20T08:18:24;23.10;99.90
29849;DHT22;16728;50.832;5.590;2023-08-20T08:21:26;23.10;99.90
29849;DHT22;16728;50.832;5.590;2023-08-20T08:24:28;23.00;99.90
29849;DHT22;16728;50.832;5.590;2023-08-20T08:27:30;22.90;99.90
29849;DHT22;16728;50.832;5.590;2023-08-20T08:30:32;23.00;99.90
29849;DHT22;16728;50.832;5.590;2023-08-20T08:33:34;23.10;99.90
29849;DHT22;16728;50.832;5.590;2023-08-20T08:36:36;23.20;99.90
29849;DHT22;16728;50.832;5.590;2023-08-20T08:39:39;23.20;99.90
29849;DHT22;16728;50.832;5.590;2023-08-20T08:42:41;23.30;99.90
29849;DHT22;16728;50.832;5.590;2023-08-20T08:45:47;23.40;99.90
29849;DHT22;16728;50.832;5.590;2023-08-20T08:48:52;23.50;99.90
29849;DHT22;16728;50.832;5.590;2023-08-20T08:51:56;23.50;99.90
29849;DHT22;16728;50.832;5.590;2023-08-20T08:54:59;23.70;99.90
29849;DHT22;16728;50.832;5.590;2023-08-20T08:58:01;23.70;99.90
29849;DHT22;16728;50.832;5.590;2023-08-20T09:01:03;23.80;99.90
29849;DHT22;16728;50.832;5.590;2023-08-20T09:04:05;23.90;99.90
29849;DHT22;16728;50.832;5.590;2023-08-20T09:07:14;23.80;99.90
29849;DHT22;16728;50.832;5.590;2023-08-20T09:10:17;23.80;99.90
29849;DHT22;16728;50.832;5.590;2023-08-20T09:16:37;24.00;99.90
29849;DHT22;16728;50.832;5.590;2023-08-20T09:19:39;24.00;99.90
29849;DHT22;16728;50.832;5.590;2023-08-20T09:22:48;24.20;99.90
29849;DHT22;16728;50.832;5.590;2023-08-20T09:25:53;24.20;99.90
29849;DHT22;16728;50.832;5.590;2023-08-20T09:28:55;24.20;99.90
29849;DHT22;16728;50.832;5.590;2023-08-20T09:32:01;24.30;99.90
29849;DHT22;16728;50.832;5.590;2023-08-20T09:35:05;24.30;99.90
29849;DHT22;16728;50.832;5.590;2023-08-20T09:38:08;24.30;99.90
29849;DHT22;16728;50.832;5.590;2023-08-20T09:41:12;24.30;99.90
29849;DHT22;16728;50.832;5.590;2023-08-20T09:44:13;24.30;99.90
29849;DHT22;16728;50.832;5.590;2023-08-20T09:47:17;24.40;99.90
29849;DHT22;16728;50.832;5.590;2023-08-20T09:50:22;24.50;99.90
29849;DHT22;16728;50.832;5.590;2023-08-20T09:53:35;24.40;99.90
29849;DHT22;16728;50.832;5.590;2023-08-20T09:56:39;24.40;99.90
29849;DHT22;16728;50.832;5.590;2023-08-20T09:59:42;24.60;99.90
29849;DHT22;16728;50.832;5.590;2023-08-20T10:02:51;24.80;99.90
29849;DHT22;16728;50.832;5.590;2023-08-20T10:05:58;24.90;99.90
29849;DHT22;16728;50.832;5.590;2023-08-20T10:09:02;24.90;99.90
29849;DHT22;16728;50.832;5.590;2023-08-20T10:12:05;25.00;99.90
29849;DHT22;16728;50.832;5.590;2023-08-20T10:15:08;25.10;99.90
29849;DHT22;16728;50.832;5.590;2023-08-20T10:18:11;25.00;99.90
29849;DHT22;16728;50.832;5.590;2023-08-20T10:21:14;24.90;99.90
29849;DHT22;16728;50.832;5.590;2023-08-20T10:24:17;24.90;99.90
29849;DHT22;16728;50.832;5.590;2023-08-20T10:27:28;24.90;99.90
29849;DHT22;16728;50.832;5.590;2023-08-20T10:30:30;24.80;99.90
29849;DHT22;16728;50.832;5.590;2023-08-20T10:33:34;24.80;99.90
29849;DHT22;16728;50.832;5.590;2023-08-20T10:36:41;24.90;99.90
29849;DHT22;16728;50.832;5.590;2023-08-20T10:39:53;25.10;99.90
29849;DHT22;16728;50.832;5.590;2023-08-20T10:43:01;25.10;99.90
29849;DHT22;16728;50.832;5.590;2023-08-20T10:46:19;24.90;99.90
29849;DHT22;16728;50.832;5.590;2023-08-20T10:49:21;24.90;99.90
29849;DHT22;16728;50.832;5.590;2023-08-20T10:52:23;25.00;99.90
29849;DHT22;16728;50.832;5.590;2023-08-20T10:55:25;24.90;99.90
29849;DHT22;16728;50.832;5.590;2023-08-20T10:58:30;25.20;99.90
29849;DHT22;16728;50.832;5.590;2023-08-20T11:01:32;25.20;99.90
29849;DHT22;16728;50.832;5.590;2023-08-20T11:04:34;25.30;99.90
29849;DHT22;16728;50.832;5.590;2023-08-20T11:07:36;25.30;99.90
29849;DHT22;16728;50.832;5.590;2023-08-20T11:10:39;25.20;99.90
29849;DHT22;16728;50.832;5.590;2023-08-20T11:13:40;25.20;99.90
29849;DHT22;16728;50.832;5.590;2023-08-20T11:16:45;25.20;99.90
29849;DHT22;16728;50.832;5.590;2023-08-20T11:19:48;25.20;99.90
29849;DHT22;16728;50.832;5.590;2023-08-20T11:23:08;25.20;99.90
29849;DHT22;16728;50.832;5.590;2023-08-20T11:26:12;25.30;99.90
29849;DHT22;16728;50.832;5.590;2023-08-20T11:29:16;25.50;99.90
29849;DHT22;16728;50.832;5.590;2023-08-20T11:32:23;25.50;99.90
29849;DHT22;16728;50.832;5.590;2023-08-20T11:35:26;25.40;99.90
29849;DHT22;16728;50.832;5.590;2023-08-20T11:38:28;25.40;99.90
29849;DHT22;16728;50.832;5.590;2023-08-20T11:41:31;25.40;99.90
29849;DHT22;16728;50.832;5.590;2023-08-20T11:44:45;25.40;99.90
29849;DHT22;16728;50.832;5.590;2023-08-20T11:47:47;25.50;99.90
29849;DHT22;16728;50.832;5.590;2023-08-20T11:50:52;25.70;99.90
29849;DHT22;16728;50.832;5.590;2023-08-20T11:53:55;25.70;99.90
29849;DHT22;16728;50.832;5.590;2023-08-20T11:57:01;25.80;99.90
29849;DHT22;16728;50.832;5.590;2023-08-20T12:00:05;25.90;99.90
29849;DHT22;16728;50.832;5.590;2023-08-20T12:03:11;26.00;99.90
29849;DHT22;16728;50.832;5.590;2023-08-20T12:06:21;26.00;99.90
29849;DHT22;16728;50.832;5.590;2023-08-20T12:09:26;26.00;99.90
29849;DHT22;16728;50.832;5.590;2023-08-20T12:12:28;25.90;99.90
29849;DHT22;16728;50.832;5.590;2023-08-20T12:15:30;25.80;99.90
29849;DHT22;16728;50.832;5.590;2023-08-20T12:18:32;25.70;99.90
29849;DHT22;16728;50.832;5.590;2023-08-20T12:21:34;25.60;99.90
29849;DHT22;16728;50.832;5.590;2023-08-20T12:24:36;25.60;99.90
29849;DHT22;16728;50.832;5.590;2023-08-20T12:27:41;25.70;99.90
29849;DHT22;16728;50.832;5.590;2023-08-20T12:30:43;25.80;99.90
29849;DHT22;16728;50.832;5.590;2023-08-20T12:33:45;26.00;99.90
29849;DHT22;16728;50.832;5.590;2023-08-20T12:36:48;26.10;99.90
29849;DHT22;16728;50.832;5.590;2023-08-20T12:39:50;26.20;99.90
29849;DHT22;16728;50.832;5.590;2023-08-20T12:42:52;26.20;99.90
29849;DHT22;16728;50.832;5.590;2023-08-20T12:45:54;26.20;99.90
29849;DHT22;16728;50.832;5.590;2023-08-20T12:48:57;26.40;99.90
29849;DHT22;16728;50.832;5.590;2023-08-20T12:51:59;26.30;99.90
29849;DHT22;16728;50.832;5.590;2023-08-20T12:55:01;26.20;99.90
29849;DHT22;16728;50.832;5.590;2023-08-20T12:58:04;26.20;99.90
29849;DHT22;16728;50.832;5.590;2023-08-20T13:01:06;26.10;99.90
29849;DHT22;16728;50.832;5.590;2023-08-20T13:04:08;26.20;99.90
29849;DHT22;16728;50.832;5.590;2023-08-20T13:07:12;26.20;99.90
29849;DHT22;16728;50.832;5.590;2023-08-20T13:10:15;26.30;99.90
29849;DHT22;16728;50.832;5.590;2023-08-20T13:13:19;26.30;99.90
29849;DHT22;16728;50.832;5.590;2023-08-20T13:16:22;26.30;99.90
29849;DHT22;16728;50.832;5.590;2023-08-20T13:19:25;26.30;99.90
29849;DHT22;16728;50.832;5.590;2023-08-20T13:22:27;26.20;99.90
29849;DHT22;16728;50.832;5.590;2023-08-20T13:25:29;26.10;99.90
29849;DHT22;16728;50.832;5.590;2023-08-20T13:28:32;26.10;99.90
29849;DHT22;16728;50.832;5.590;2023-08-20T13:31:34;26.20;99.90
29849;DHT22;16728;50.832;5.590;2023-08-20T13:34:37;26.20;99.90
29849;DHT22;16728;50.832;5.590;2023-08-20T13:37:40;26.30;99.90
29849;DHT22;16728;50.832;5.590;2023-08-20T13:40:42;26.30;99.90
29849;DHT22;16728;50.832;5.590;2023-08-20T13:43:44;26.40;99.90
29849;DHT22;16728;50.832;5.590;2023-08-20T13:46:45;26.50;99.90
29849;DHT22;16728;50.832;5.590;2023-08-20T13:49:47;26.50;99.90
29849;DHT22;16728;50.832;5.590;2023-08-20T13:52:49;26.60;99.90
29849;DHT22;16728;50.832;5.590;2023-08-20T13:55:51;26.50;99.90
29849;DHT22;16728;50.832;5.590;2023-08-20T13:58:54;26.60;99.90
29849;DHT22;16728;50.832;5.590;2023-08-20T14:01:56;26.60;99.90
29849;DHT22;16728;50.832;5.590;2023-08-20T14:04:58;26.60;99.90
29849;DHT22;16728;50.832;5.590;2023-08-20T14:08:01;26.60;99.90
29849;DHT22;16728;50.832;5.590;2023-08-20T14:11:03;26.60;99.90
29849;DHT22;16728;50.832;5.590;2023-08-20T14:14:05;26.70;99.90
29849;DHT22;16728;50.832;5.590;2023-08-20T14:17:07;26.70;99.90
29849;DHT22;16728;50.832;5.590;2023-08-20T14:20:11;26.80;99.90
29849;DHT22;16728;50.832;5.590;2023-08-20T14:23:13;26.80;99.90
29849;DHT22;16728;50.832;5.590;2023-08-20T14:26:15;26.80;99.90
29849;DHT22;16728;50.832;5.590;2023-08-20T14:29:17;26.90;99.90
29849;DHT22;16728;50.832;5.590;2023-08-20T14:32:20;26.80;99.90
29849;DHT22;16728;50.832;5.590;2023-08-20T14:35:22;26.90;99.90
29849;DHT22;16728;50.832;5.590;2023-08-20T14:38:24;26.90;99.90
29849;DHT22;16728;50.832;5.590;2023-08-20T14:41:26;26.90;99.90
29849;DHT22;16728;50.832;5.590;2023-08-20T14:44:28;26.90;99.90
29849;DHT22;16728;50.832;5.590;2023-08-20T14:47:30;26.80;99.90
29849;DHT22;16728;50.832;5.590;2023-08-20T14:50:33;26.80;99.90
29849;DHT22;16728;50.832;5.590;2023-08-20T14:53:35;26.70;99.90
29849;DHT22;16728;50.832;5.590;2023-08-20T14:56:37;26.70;99.90
29849;DHT22;16728;50.832;5.590;2023-08-20T14:59:39;26.60;99.90
29849;DHT22;16728;50.832;5.590;2023-08-20T15:02:41;26.60;99.90
29849;DHT22;16728;50.832;5.590;2023-08-20T15:05:44;26.60;99.90
29849;DHT22;16728;50.832;5.590;2023-08-20T15:08:46;26.50;99.90
29849;DHT22;16728;50.832;5.590;2023-08-20T15:11:48;26.50;99.90
29849;DHT22;16728;50.832;5.590;2023-08-20T15:14:50;26.40;99.90
29849;DHT22;16728;50.832;5.590;2023-08-20T15:17:52;26.40;99.90
29849;DHT22;16728;50.832;5.590;2023-08-20T15:20:58;26.50;99.90
29849;DHT22;16728;50.832;5.590;2023-08-20T15:24:01;26.60;99.90
29849;DHT22;16728;50.832;5.590;2023-08-20T15:27:03;26.60;99.90
29849;DHT22;16728;50.832;5.590;2023-08-20T15:30:05;26.60;99.90
29849;DHT22;16728;50.832;5.590;2023-08-20T15:33:09;26.60;99.90
29849;DHT22;16728;50.832;5.590;2023-08-20T15:36:11;26.60;99.90
29849;DHT22;16728;50.832;5.590;2023-08-20T15:39:13;26.60;99.90
29849;DHT22;16728;50.832;5.590;2023-08-20T15:42:15;26.60;99.90
29849;DHT22;16728;50.832;5.590;2023-08-20T15:45:17;26.60;99.90
29849;DHT22;16728;50.832;5.590;2023-08-20T15:48:19;26.60;99.90
29849;DHT22;16728;50.832;5.590;2023-08-20T15:51:21;26.50;99.90
29849;DHT22;16728;50.832;5.590;2023-08-20T15:54:23;26.50;99.90
29849;DHT22;16728;50.832;5.590;2023-08-20T15:57:27;26.40;99.90
29849;DHT22;16728;50.832;5.590;2023-08-20T16:00:30;26.40;99.90
29849;DHT22;16728;50.832;5.590;2023-08-20T16:03:33;26.40;99.90
29849;DHT22;16728;50.832;5.590;2023-08-20T16:06:35;26.30;99.90
29849;DHT22;16728;50.832;5.590;2023-08-20T16:09:37;26.40;99.90
29849;DHT22;16728;50.832;5.590;2023-08-20T16:12:44;26.40;99.90
29849;DHT22;16728;50.832;5.590;2023-08-20T16:15:47;26.40;99.90
29849;DHT22;16728;50.832;5.590;2023-08-20T16:18:50;26.40;99.90
29849;DHT22;16728;50.832;5.590;2023-08-20T16:21:52;26.50;99.90
29849;DHT22;16728;50.832;5.590;2023-08-20T16:24:53;26.50;99.90
29849;DHT22;16728;50.832;5.590;2023-08-20T16:27:55;26.50;99.90
29849;DHT22;16728;50.832;5.590;2023-08-20T16:30:57;26.50;99.90
29849;DHT22;16728;50.832;5.590;2023-08-20T16:34:03;26.60;99.90
29849;DHT22;16728;50.832;5.590;2023-08-20T16:37:04;26.50;99.90
29849;DHT22;16728;50.832;5.590;2023-08-20T16:40:07;26.50;99.90
29849;DHT22;16728;50.832;5.590;2023-08-20T16:43:09;26.60;99.90
29849;DHT22;16728;50.832;5.590;2023-08-20T16:46:12;26.50;99.90
29849;DHT22;16728;50.832;5.590;2023-08-20T16:49:14;26.50;99.90
29849;DHT22;16728;50.832;5.590;2023-08-20T16:52:16;26.50;99.90
29849;DHT22;16728;50.832;5.590;2023-08-20T16:55:18;26.50;99.90
29849;DHT22;16728;50.832;5.590;2023-08-20T16:58:21;26.50;99.90
29849;DHT22;16728;50.832;5.590;2023-08-20T17:01:25;26.50;99.90
29849;DHT22;16728;50.832;5.590;2023-08-20T17:04:27;26.50;99.90
29849;DHT22;16728;50.832;5.590;2023-08-20T17:07:30;26.50;99.90
29849;DHT22;16728;50.832;5.590;2023-08-20T17:10:32;26.50;99.90
29849;DHT22;16728;50.832;5.590;2023-08-20T17:13:36;26.50;99.90
29849;DHT22;16728;50.832;5.590;2023-08-20T17:16:38;26.40;99.90
29849;DHT22;16728;50.832;5.590;2023-08-20T17:19:40;26.40;99.90
29849;DHT22;16728;50.832;5.590;2023-08-20T17:22:42;26.40;99.90
29849;DHT22;16728;50.832;5.590;2023-08-20T17:25:44;26.30;99.90
29849;DHT22;16728;50.832;5.590;2023-08-20T17:28:46;26.40;99.90
29849;DHT22;16728;50.832;5.590;2023-08-20T17:31:48;26.30;99.90
29849;DHT22;16728;50.832;5.590;2023-08-20T17:34:51;26.30;99.90
29849;DHT22;16728;50.832;5.590;2023-08-20T17:37:53;26.30;99.90
29849;DHT22;16728;50.832;5.590;2023-08-20T17:40:54;26.30;99.90
29849;DHT22;16728;50.832;5.590;2023-08-20T17:43:57;26.30;99.90
29849;DHT22;16728;50.832;5.590;2023-08-20T17:46:59;26.30;99.90
29849;DHT22;16728;50.832;5.590;2023-08-20T17:50:00;26.20;99.90
29849;DHT22;16728;50.832;5.590;2023-08-20T17:53:03;26.10;99.90
29849;DHT22;16728;50.832;5.590;2023-08-20T17:56:06;26.10;99.90
29849;DHT22;16728;50.832;5.590;2023-08-20T17:59:08;26.00;99.90
29849;DHT22;16728;50.832;5.590;2023-08-20T18:02:10;25.90;99.90
29849;DHT22;16728;50.832;5.590;2023-08-20T18:05:12;25.90;99.90
29849;DHT22;16728;50.832;5.590;2023-08-20T18:08:14;25.90;99.90
29849;DHT22;16728;50.832;5.590;2023-08-20T18:11:17;25.80;99.90
29849;DHT22;16728;50.832;5.590;2023-08-20T18:14:19;25.70;99.90
29849;DHT22;16728;50.832;5.590;2023-08-20T18:17:21;25.70;99.90
29849;DHT22;16728;50.832;5.590;2023-08-20T18:20:23;25.60;99.90
29849;DHT22;16728;50.832;5.590;2023-08-20T18:23:25;25.50;99.90
29849;DHT22;16728;50.832;5.590;2023-08-20T18:26:28;25.50;99.90
29849;DHT22;16728;50.832;5.590;2023-08-20T18:29:30;25.50;99.90
29849;DHT22;16728;50.832;5.590;2023-08-20T18:32:32;25.40;99.90
29849;DHT22;16728;50.832;5.590;2023-08-20T18:35:35;25.40;99.90
29849;DHT22;16728;50.832;5.590;2023-08-20T18:38:39;25.40;99.90
29849;DHT22;16728;50.832;5.590;2023-08-20T18:41:41;25.30;99.90
29849;DHT22;16728;50.832;5.590;2023-08-20T18:44:44;25.30;99.90
29849;DHT22;16728;50.832;5.590;2023-08-20T18:47:46;25.20;99.90
29849;DHT22;16728;50.832;5.590;2023-08-20T18:50:48;25.10;99.90
29849;DHT22;16728;50.832;5.590;2023-08-20T18:53:50;24.90;99.90
29849;DHT22;16728;50.832;5.590;2023-08-20T18:56:52;24.90;99.90
29849;DHT22;16728;50.832;5.590;2023-08-20T18:59:54;24.80;99.90
29849;DHT22;16728;50.832;5.590;2023-08-20T19:02:56;24.70;99.90
29849;DHT22;16728;50.832;5.590;2023-08-20T19:05:58;24.70;99.90
29849;DHT22;16728;50.832;5.590;2023-08-20T19:09:02;24.70;99.90
29849;DHT22;16728;50.832;5.590;2023-08-20T19:12:08;24.60;99.90
29849;DHT22;16728;50.832;5.590;2023-08-20T19:15:09;24.50;99.90
29849;DHT22;16728;50.832;5.590;2023-08-20T19:18:12;24.50;99.90